createdAt,value
2023-03-14T00:01:22.119Z,7.13
2023-03-14T00:03:51.180Z,7.42
2023-03-14T00:06:20.682Z,7.44
2023-03-14T00:08:49.945Z,7.17
2023-03-14T00:11:22.837Z,7.15
2023-03-14T00:13:52.514Z,7.36
2023-03-14T00:16:21.694Z,7.42
2023-03-14T00:18:50.657Z,7.63
2023-03-14T00:21:19.436Z,7.27
2023-03-14T00:23:48.169Z,7.36
2023-03-14T00:26:21.771Z,7.35
2023-03-14T00:28:54.146Z,7.33
2023-03-14T00:31:23.278Z,7.38
2023-03-14T00:33:55.512Z,7.08
2023-03-14T00:36:24.577Z,7.06
2023-03-14T00:38:53.936Z,7.13
2023-03-14T00:41:25.275Z,7.27
2023-03-14T00:43:54.299Z,7.28
2023-03-14T00:46:22.718Z,7.22
2023-03-14T00:48:51.585Z,7.28
2023-03-14T00:51:19.939Z,7.25
2023-03-14T00:53:49.017Z,7.25
2023-03-14T00:56:17.514Z,7.16
2023-03-14T00:58:47.233Z,7.19
2023-03-14T01:01:19.774Z,7.17
2023-03-14T01:03:48.880Z,7.26
2023-03-14T01:06:20.574Z,7.07
2023-03-14T01:08:49.717Z,6.95
2023-03-14T01:11:21.376Z,6.56
2023-03-14T01:13:51.553Z,6.61
2023-03-14T01:16:22.280Z,6.69
2023-03-14T01:18:51.098Z,6.50
2023-03-14T01:21:22.567Z,6.19
2023-03-14T01:23:52.148Z,5.98
2023-03-14T01:26:24.512Z,5.71
2023-03-14T01:28:57.131Z,5.75
2023-03-14T01:31:27.071Z,5.79
2023-03-14T01:33:56.254Z,6.06
2023-03-14T01:36:24.945Z,6.07
2023-03-14T01:38:53.522Z,6.03
2023-03-14T01:41:25.620Z,6.19
2023-03-14T01:43:57.343Z,6.14
2023-03-14T01:46:39.421Z,6.08
2023-03-14T01:49:22.462Z,5.97
2023-03-14T01:52:08.854Z,6.08
2023-03-14T01:54:41.067Z,5.86
2023-03-14T01:57:15.530Z,6.08
2023-03-14T01:59:52.324Z,6.00
2023-03-14T02:02:21.342Z,6.03
2023-03-14T02:04:50.902Z,5.85
2023-03-14T02:07:25.042Z,6.01
2023-03-14T02:10:07.622Z,5.91
2023-03-14T02:12:37.386Z,5.99
2023-03-14T02:15:15.428Z,5.73
2023-03-14T02:18:00.208Z,5.88
2023-03-14T02:20:56.848Z,5.81
2023-03-14T02:23:37.652Z,5.93
2023-03-14T02:26:12.841Z,6.06
2023-03-14T02:28:42.807Z,5.88
2023-03-14T02:31:11.366Z,6.06
2023-03-14T02:33:40.806Z,5.98
2023-03-14T02:36:13.829Z,6.18
2023-03-14T02:38:49.428Z,6.14
2023-03-14T02:41:18.887Z,6.22
2023-03-14T02:43:56.081Z,6.23
2023-03-14T02:46:24.833Z,6.13
2023-03-14T02:48:58.077Z,6.24
2023-03-14T02:51:27.970Z,6.23
2023-03-14T02:53:56.681Z,6.26
2023-03-14T02:56:27.622Z,6.19
2023-03-14T02:58:58.787Z,6.36
2023-03-14T03:01:37.671Z,6.27
2023-03-14T03:04:07.148Z,6.33
2023-03-14T03:06:35.653Z,6.24
2023-03-14T03:09:04.462Z,6.40
2023-03-14T03:11:33.649Z,6.46
2023-03-14T03:14:03.685Z,6.33
2023-03-14T03:16:32.209Z,6.40
2023-03-14T03:19:02.145Z,6.33
2023-03-14T03:21:30.470Z,6.45
2023-03-14T03:23:58.946Z,6.26
2023-03-14T03:26:27.307Z,6.44
2023-03-14T03:28:55.853Z,6.35
2023-03-14T03:31:26.970Z,6.00
2023-03-14T03:33:55.430Z,6.44
2023-03-14T03:36:24.655Z,6.27
2023-03-14T03:38:53.380Z,6.49
2023-03-14T03:41:21.955Z,6.45
2023-03-14T03:43:51.981Z,6.41
2023-03-14T03:46:21.069Z,6.42
2023-03-14T03:48:50.980Z,6.39
2023-03-14T03:51:20.203Z,6.31
2023-03-14T03:53:49.208Z,6.30
2023-03-14T03:56:22.254Z,6.16
2023-03-14T03:58:50.567Z,6.45
2023-03-14T04:01:19.151Z,5.81
2023-03-14T04:03:52.437Z,6.41
2023-03-14T04:06:21.891Z,6.45
2023-03-14T04:08:51.972Z,6.50
2023-03-14T04:11:52.792Z,6.58
2023-03-14T04:14:24.688Z,6.34
2023-03-14T04:17:11.536Z,6.51
2023-03-14T04:19:43.149Z,6.67
2023-03-14T04:22:12.470Z,6.53
2023-03-14T04:24:48.868Z,6.55
2023-03-14T04:27:17.522Z,6.64
2023-03-14T04:29:47.503Z,6.56
2023-03-14T04:32:18.713Z,6.26
2023-03-14T04:34:48.670Z,6.22
2023-03-14T04:37:17.135Z,6.20
2023-03-14T04:39:46.717Z,6.26
2023-03-14T04:42:24.273Z,5.96
2023-03-14T04:44:52.704Z,6.04
2023-03-14T04:47:24.078Z,5.99
2023-03-14T04:49:54.814Z,6.23
2023-03-14T04:52:25.572Z,6.03
2023-03-14T04:54:54.121Z,6.07
2023-03-14T04:57:24.514Z,6.13
2023-03-14T04:59:53.372Z,6.13
2023-03-14T05:02:42.062Z,5.95
2023-03-14T05:05:21.261Z,5.78
2023-03-14T05:08:15.692Z,6.10
2023-03-14T05:11:13.986Z,5.90
2023-03-14T05:13:56.335Z,5.91
2023-03-14T05:16:44.222Z,5.96
2023-03-14T05:19:40.117Z,5.86
2023-03-14T05:22:39.139Z,5.78
2023-03-14T05:25:26.844Z,5.78
2023-03-14T05:28:14.696Z,6.04
2023-03-14T05:31:01.675Z,5.99
2023-03-14T05:33:48.821Z,6.00
2023-03-14T05:36:17.195Z,5.79
2023-03-14T05:39:07.713Z,5.65
2023-03-14T05:41:57.410Z,5.69
2023-03-14T05:44:42.462Z,5.99
2023-03-14T05:47:31.228Z,5.98
2023-03-14T05:50:22.592Z,5.98
2023-03-14T05:53:02.430Z,5.78
2023-03-14T05:55:32.398Z,5.90
2023-03-14T05:58:23.868Z,5.74
2023-03-14T06:01:15.462Z,5.87
2023-03-14T06:04:03.209Z,5.69
2023-03-14T06:06:31.822Z,5.73
2023-03-14T06:09:01.844Z,5.81
2023-03-14T06:11:34.340Z,5.30
2023-03-14T06:14:03.145Z,5.59
2023-03-14T06:16:33.167Z,5.58
2023-03-14T06:19:02.538Z,5.67
2023-03-14T06:21:32.574Z,5.60
2023-03-14T06:24:01.062Z,5.70
2023-03-14T06:26:32.917Z,5.66
2023-03-14T06:29:04.358Z,5.24
2023-03-14T06:31:33.683Z,5.28
2023-03-14T06:34:05.409Z,4.56
2023-03-14T06:36:35.062Z,4.84
2023-03-14T06:39:04.193Z,4.80
2023-03-14T06:41:36.545Z,4.18
2023-03-14T06:44:05.143Z,4.32
2023-03-14T06:46:34.330Z,3.65
2023-03-14T06:49:03.801Z,4.01
2023-03-14T06:51:32.668Z,3.39
2023-03-14T06:54:01.333Z,3.49
2023-03-14T06:56:30.616Z,3.69
2023-03-14T06:59:01.033Z,3.53
2023-03-14T07:01:33.653Z,3.71
2023-03-14T07:04:08.337Z,3.57
2023-03-14T07:06:45.277Z,3.39
2023-03-14T07:09:14.644Z,3.56
2023-03-14T07:11:49.655Z,3.49
2023-03-14T07:14:22.041Z,3.49
2023-03-14T07:16:51.583Z,3.56
2023-03-14T07:19:20.139Z,3.66
2023-03-14T07:21:48.833Z,3.62
2023-03-14T07:24:22.727Z,3.59
2023-03-14T07:26:51.547Z,3.47
2023-03-14T07:29:21.565Z,3.08
2023-03-14T07:31:50.457Z,3.24
2023-03-14T07:34:21.755Z,3.35
2023-03-14T07:36:51.203Z,3.13
2023-03-14T07:39:20.059Z,3.08
2023-03-14T07:42:00.730Z,3.41
2023-03-14T07:44:50.823Z,3.24
2023-03-14T07:47:19.223Z,3.40
2023-03-14T07:49:47.644Z,3.43
2023-03-14T07:52:16.177Z,3.44
2023-03-14T07:54:45.937Z,3.68
2023-03-14T07:57:14.348Z,3.46
2023-03-14T07:59:42.836Z,3.59
2023-03-14T08:02:14.125Z,3.65
2023-03-14T08:04:43.078Z,3.68
2023-03-14T08:07:11.451Z,3.57
2023-03-14T08:09:40.139Z,4.03
2023-03-14T08:12:09.540Z,4.10
2023-03-14T08:14:38.023Z,4.17
2023-03-14T08:17:09.146Z,4.39
2023-03-14T08:19:38.983Z,4.22
2023-03-14T08:22:07.816Z,4.03
2023-03-14T08:24:36.810Z,3.87
2023-03-14T08:27:05.364Z,3.73
2023-03-14T08:29:33.906Z,4.18
2023-03-14T08:32:03.279Z,3.85
2023-03-14T08:34:31.908Z,4.34
2023-03-14T08:37:04.401Z,3.99
2023-03-14T08:39:34.855Z,4.40
2023-03-14T08:42:03.496Z,4.20
2023-03-14T08:44:32.207Z,3.25
2023-03-14T08:47:03.890Z,3.68
2023-03-14T08:49:33.952Z,3.36
2023-03-14T08:52:06.627Z,2.79
2023-03-14T08:54:35.095Z,2.83
2023-03-14T08:57:06.469Z,2.77
2023-03-14T08:59:35.074Z,2.83
2023-03-14T09:02:07.285Z,3.01
2023-03-14T09:04:37.085Z,2.44
2023-03-14T09:07:07.064Z,2.63
2023-03-14T09:09:36.132Z,2.36
2023-03-14T09:12:06.434Z,2.46
2023-03-14T09:14:36.381Z,2.22
2023-03-14T09:17:10.650Z,2.36
2023-03-14T09:19:40.017Z,2.34
2023-03-14T09:22:15.752Z,1.12
2023-03-14T09:24:45.418Z,1.85
2023-03-14T09:27:14.342Z,2.84
2023-03-14T09:29:48.929Z,2.62
2023-03-14T09:32:22.513Z,2.90
2023-03-14T09:34:53.683Z,1.81
2023-03-14T09:37:27.456Z,2.47
2023-03-14T09:39:55.903Z,2.72
2023-03-14T09:42:28.766Z,2.42
2023-03-14T09:45:01.578Z,2.84
2023-03-14T09:47:30.701Z,2.43
2023-03-14T09:50:04.282Z,3.56
2023-03-14T09:52:40.978Z,2.95
2023-03-14T09:55:17.932Z,3.49
2023-03-14T09:57:49.267Z,2.90
2023-03-14T10:00:25.775Z,3.97
2023-03-14T10:03:03.337Z,3.24
2023-03-14T10:05:31.829Z,2.92
2023-03-14T10:08:04.402Z,3.26
2023-03-14T10:10:34.061Z,2.88
2023-03-14T10:13:17.446Z,2.60
2023-03-14T10:15:54.110Z,2.18
2023-03-14T10:18:26.458Z,2.83
2023-03-14T10:21:11.544Z,2.21
2023-03-14T10:23:49.673Z,2.16
2023-03-14T10:26:20.607Z,3.05
2023-03-14T10:28:56.404Z,2.45
2023-03-14T10:31:30.029Z,2.38
2023-03-14T10:34:06.150Z,2.13
2023-03-14T10:36:43.729Z,2.11
2023-03-14T10:39:39.104Z,1.00
2023-03-14T10:42:17.626Z,1.18
2023-03-14T10:44:47.129Z,1.24
2023-03-14T10:47:22.527Z,1.46
2023-03-14T10:49:54.646Z,0.73
2023-03-14T10:52:31.217Z,1.27
2023-03-14T10:55:15.404Z,1.66
2023-03-14T10:57:46.377Z,2.01
2023-03-14T11:00:19.955Z,1.33
2023-03-14T11:03:04.831Z,2.09
2023-03-14T11:05:42.941Z,2.60
2023-03-14T11:08:20.145Z,3.80
2023-03-14T11:10:56.324Z,2.82
2023-03-14T11:13:32.426Z,3.42
2023-03-14T11:16:08.720Z,2.61
2023-03-14T11:19:13.985Z,2.23
2023-03-14T11:21:52.768Z,1.60
2023-03-14T11:24:49.509Z,2.10
2023-03-14T11:27:24.230Z,1.70
2023-03-14T11:30:01.172Z,2.37
2023-03-14T11:32:46.720Z,2.42
2023-03-14T11:35:26.461Z,2.36
2023-03-14T11:38:01.211Z,2.75
2023-03-14T11:40:32.371Z,3.41
2023-03-14T11:43:12.557Z,2.43
2023-03-14T11:45:44.904Z,2.91
2023-03-14T11:48:28.250Z,2.82
2023-03-14T11:51:01.861Z,2.69
2023-03-14T11:53:53.106Z,3.36
2023-03-14T11:56:31.973Z,2.81
2023-03-14T11:59:13.042Z,2.58
2023-03-14T12:01:56.594Z,3.38
2023-03-14T12:04:49.631Z,2.82
2023-03-14T12:07:25.052Z,3.85
2023-03-14T12:09:56.229Z,3.58
2023-03-14T12:12:28.985Z,3.80
2023-03-14T12:15:03.763Z,3.97
2023-03-14T12:17:40.091Z,3.96
2023-03-14T12:20:20.551Z,3.38
2023-03-14T12:22:52.643Z,4.01
2023-03-14T12:25:25.001Z,4.32
2023-03-14T12:28:23.140Z,3.93
2023-03-14T12:30:53.334Z,4.53
2023-03-14T12:33:34.814Z,4.76
2023-03-14T12:36:54.767Z,5.13
2023-03-14T12:39:34.852Z,5.13
2023-03-14T12:42:11.999Z,4.35
2023-03-14T12:44:50.160Z,4.41
2023-03-14T12:48:15.328Z,4.34
2023-03-14T12:50:52.784Z,4.94
2023-03-14T12:54:17.860Z,4.71
2023-03-14T12:57:08.782Z,4.41
2023-03-14T12:59:42.052Z,3.91
2023-03-14T13:02:26.032Z,4.26
2023-03-14T13:05:20.458Z,4.44
2023-03-14T13:08:14.952Z,5.19
2023-03-14T13:10:53.775Z,5.30
2023-03-14T13:13:31.346Z,3.92
2023-03-14T13:16:04.872Z,4.11
2023-03-14T13:18:43.073Z,4.09
2023-03-14T13:21:21.323Z,4.28
2023-03-14T13:24:00.893Z,3.79
2023-03-14T13:26:38.005Z,4.46
2023-03-14T13:29:19.631Z,4.64
2023-03-14T13:31:53.432Z,4.43
2023-03-14T13:34:22.661Z,4.74
2023-03-14T13:36:55.909Z,4.88
2023-03-14T13:39:29.287Z,4.62
2023-03-14T13:42:02.406Z,4.25
2023-03-14T13:44:34.760Z,4.51
2023-03-14T13:47:06.533Z,4.77
2023-03-14T13:49:41.505Z,4.63
2023-03-14T13:52:32.244Z,4.34
2023-03-14T13:55:04.262Z,4.36
2023-03-14T13:57:50.606Z,4.68
2023-03-14T14:00:27.834Z,4.89
2023-03-14T14:02:58.038Z,4.83
2023-03-14T14:05:30.712Z,4.89
2023-03-14T14:08:01.265Z,4.47
2023-03-14T14:10:32.571Z,4.31
2023-03-14T14:13:03.977Z,4.52
2023-03-14T14:15:36.218Z,4.48
2023-03-14T14:18:08.203Z,4.16
2023-03-14T14:20:43.383Z,3.97
2023-03-14T14:23:17.667Z,4.00
2023-03-14T14:25:47.370Z,4.00
2023-03-14T14:28:27.837Z,4.39
2023-03-14T14:31:19.458Z,3.91
2023-03-14T14:33:55.979Z,4.09
2023-03-14T14:36:29.577Z,4.18
2023-03-14T14:39:07.249Z,4.22
2023-03-14T14:41:41.889Z,4.23
2023-03-14T14:44:15.944Z,4.03
2023-03-14T14:46:47.080Z,4.21
2023-03-14T14:49:21.917Z,3.55
2023-03-14T14:51:52.662Z,3.80
2023-03-14T14:54:36.863Z,3.32
2023-03-14T14:57:08.434Z,3.24
2023-03-14T14:59:45.646Z,3.34
2023-03-14T15:02:37.588Z,3.62
2023-03-14T15:05:07.231Z,3.37
2023-03-14T15:07:35.794Z,3.12
2023-03-14T15:10:07.229Z,3.01
2023-03-14T15:12:35.686Z,3.45
2023-03-14T15:15:04.280Z,3.32
2023-03-14T15:17:33.991Z,3.57
2023-03-14T15:20:05.178Z,3.57
2023-03-14T15:22:34.409Z,3.13
2023-03-14T15:25:02.910Z,3.13
2023-03-14T15:27:34.049Z,3.01
2023-03-14T15:30:02.693Z,3.02
2023-03-14T15:32:31.660Z,2.95
2023-03-14T15:35:00.197Z,3.08
2023-03-14T15:37:28.742Z,3.03
2023-03-14T15:39:58.979Z,3.01
2023-03-14T15:42:27.957Z,3.11
2023-03-14T15:44:58.069Z,2.99
2023-03-14T15:47:28.590Z,2.72
2023-03-14T15:49:58.613Z,2.91
2023-03-14T15:52:27.088Z,2.44
2023-03-14T15:54:55.563Z,2.88
2023-03-14T15:57:25.790Z,2.67
2023-03-14T15:59:54.842Z,2.46
2023-03-14T16:02:25.045Z,2.69
2023-03-14T16:04:53.478Z,2.79
2023-03-14T16:07:22.219Z,2.57
2023-03-14T16:09:51.126Z,2.63
2023-03-14T16:12:19.633Z,2.46
2023-03-14T16:14:50.244Z,2.34
2023-03-14T16:17:21.676Z,2.60
2023-03-14T16:19:51.716Z,2.56
2023-03-14T16:22:20.337Z,2.56
2023-03-14T16:24:49.016Z,3.08
2023-03-14T16:27:18.035Z,3.14
2023-03-14T16:29:49.044Z,3.00
2023-03-14T16:32:19.270Z,3.20
2023-03-14T16:34:49.092Z,2.62
2023-03-14T16:37:21.543Z,2.80
2023-03-14T16:40:11.277Z,2.67
2023-03-14T16:42:54.917Z,2.81
2023-03-14T16:45:28.142Z,2.60
2023-03-14T16:47:56.824Z,2.70
2023-03-14T16:50:25.341Z,2.62
2023-03-14T16:52:55.400Z,2.64
2023-03-14T16:55:24.189Z,2.53
2023-03-14T16:57:52.717Z,2.78
2023-03-14T17:00:23.478Z,2.68
2023-03-14T17:02:51.930Z,2.47
2023-03-14T17:05:21.247Z,2.79
2023-03-14T17:07:50.738Z,2.72
2023-03-14T17:10:20.862Z,2.64
2023-03-14T17:12:51.742Z,2.79
2023-03-14T17:15:20.331Z,2.73
2023-03-14T17:17:48.832Z,2.76
2023-03-14T17:20:17.813Z,2.89
2023-03-14T17:22:46.386Z,2.77
2023-03-14T17:25:15.174Z,2.81
2023-03-14T17:27:46.170Z,2.47
2023-03-14T17:30:16.168Z,2.61
2023-03-14T17:32:44.792Z,2.36
2023-03-14T17:35:13.253Z,2.42
2023-03-14T17:37:42.120Z,2.10
2023-03-14T17:40:12.578Z,2.05
2023-03-14T17:42:41.009Z,1.70
2023-03-14T17:45:12.509Z,1.83
2023-03-14T17:47:41.027Z,1.64
2023-03-14T17:50:11.090Z,2.11
2023-03-14T17:52:40.255Z,1.62
2023-03-14T17:55:12.080Z,1.73
2023-03-14T17:57:40.913Z,1.67
2023-03-14T18:00:13.808Z,1.56
2023-03-14T18:02:42.463Z,1.46
2023-03-14T18:05:11.247Z,1.39
2023-03-14T18:07:40.314Z,1.24
2023-03-14T18:10:10.553Z,1.33
2023-03-14T18:12:39.370Z,1.35
2023-03-14T18:15:13.181Z,1.18
2023-03-14T18:17:42.141Z,1.36
2023-03-14T18:20:13.026Z,1.09
2023-03-14T18:22:42.365Z,1.27
2023-03-14T18:25:12.346Z,0.82
2023-03-14T18:27:40.768Z,1.38
2023-03-14T18:30:12.812Z,1.16
2023-03-14T18:32:41.338Z,1.44
2023-03-14T18:35:10.306Z,1.23
2023-03-14T18:37:38.746Z,1.27
2023-03-14T18:40:10.450Z,1.24
2023-03-14T18:42:38.867Z,1.11
2023-03-14T18:45:08.683Z,1.02
2023-03-14T18:47:38.484Z,0.99
2023-03-14T18:50:09.371Z,0.86
2023-03-14T18:52:37.713Z,0.44
2023-03-14T18:55:07.181Z,0.76
2023-03-14T18:57:35.502Z,0.70
2023-03-14T19:00:07.094Z,0.69
2023-03-14T19:02:36.926Z,0.63
2023-03-14T19:05:06.060Z,0.53
2023-03-14T19:07:34.549Z,0.57
2023-03-14T19:10:03.013Z,0.37
2023-03-14T19:12:31.494Z,0.41
2023-03-14T19:14:59.813Z,0.40
2023-03-14T19:17:28.259Z,0.25
2023-03-14T19:19:58.044Z,0.21
2023-03-14T19:22:26.456Z,0.18
2023-03-14T19:24:56.001Z,0.02
2023-03-14T19:27:24.552Z,-0.12
2023-03-14T19:29:52.951Z,-0.07
2023-03-14T19:32:22.021Z,-0.02
2023-03-14T19:34:50.641Z,-0.09
2023-03-14T19:37:20.420Z,-0.06
2023-03-14T19:39:48.950Z,-0.16
2023-03-14T19:42:17.396Z,-0.15
2023-03-14T19:44:45.799Z,-0.28
2023-03-14T19:47:14.198Z,-0.19
2023-03-14T19:49:42.687Z,-0.25
2023-03-14T19:52:11.076Z,-0.34
2023-03-14T19:54:42.407Z,-0.23
2023-03-14T19:57:11.078Z,-0.26
2023-03-14T19:59:39.533Z,-0.63
2023-03-14T20:02:08.064Z,-0.48
2023-03-14T20:04:36.578Z,-0.57
2023-03-14T20:07:04.928Z,-0.42
2023-03-14T20:09:33.273Z,-0.42
2023-03-14T20:12:03.086Z,-0.63
2023-03-14T20:14:31.451Z,-0.57
2023-03-14T20:17:00.155Z,-0.36
2023-03-14T20:19:29.286Z,-0.48
2023-03-14T20:21:58.138Z,-0.67
2023-03-14T20:24:26.489Z,-0.44
2023-03-14T20:26:54.971Z,-0.52
2023-03-14T20:29:25.503Z,-0.54
2023-03-14T20:31:53.897Z,-0.49
2023-03-14T20:34:22.444Z,-0.46
2023-03-14T20:36:52.938Z,-0.31
2023-03-14T20:39:21.737Z,-0.46
2023-03-14T20:41:50.200Z,-0.24
2023-03-14T20:44:18.564Z,-0.13
2023-03-14T20:46:48.305Z,-0.07
2023-03-14T20:49:16.723Z,-0.25
2023-03-14T20:51:45.160Z,-0.15
2023-03-14T20:54:15.049Z,-0.19
2023-03-14T20:56:46.277Z,-0.20
2023-03-14T20:59:14.624Z,-0.35
2023-03-14T21:01:43.246Z,-0.43
2023-03-14T21:04:13.228Z,-0.32
2023-03-14T21:06:42.656Z,-0.44
2023-03-14T21:09:11.119Z,-0.23
2023-03-14T21:11:42.715Z,-0.32
2023-03-14T21:14:11.132Z,-0.12
2023-03-14T21:16:39.661Z,-0.07
2023-03-14T21:19:08.274Z,-0.23
2023-03-14T21:21:38.535Z,0.11
2023-03-14T21:24:08.055Z,0.17
2023-03-14T21:26:36.567Z,0.05
2023-03-14T21:29:05.046Z,0.27
2023-03-14T21:31:33.749Z,0.26
2023-03-14T21:34:02.232Z,0.34
2023-03-14T21:36:32.008Z,0.36
2023-03-14T21:39:02.416Z,0.15
2023-03-14T21:41:30.884Z,0.27
2023-03-14T21:43:59.298Z,0.15
2023-03-14T21:46:27.675Z,0.40
2023-03-14T21:48:56.152Z,0.26
2023-03-14T21:51:29.853Z,0.41
2023-03-14T21:53:58.605Z,0.40
2023-03-14T21:56:28.607Z,0.49
2023-03-14T21:58:59.059Z,0.61
2023-03-14T22:01:28.270Z,0.75
2023-03-14T22:03:56.746Z,0.70
2023-03-14T22:06:25.187Z,0.61
2023-03-14T22:08:55.149Z,0.67
2023-03-14T22:11:23.875Z,0.84
2023-03-14T22:13:53.608Z,0.75
2023-03-14T22:16:22.114Z,0.31
2023-03-14T22:18:50.524Z,0.49
2023-03-14T22:21:19.015Z,-0.09
2023-03-14T22:23:47.393Z,-0.00
2023-03-14T22:26:15.728Z,0.06
2023-03-14T22:28:44.213Z,-0.07
2023-03-14T22:31:14.974Z,-0.58
2023-03-14T22:33:43.304Z,-0.58
2023-03-14T22:36:11.845Z,-1.04
2023-03-14T22:38:40.277Z,-1.07
2023-03-14T22:41:08.620Z,-1.79
2023-03-14T22:43:36.993Z,-1.48
2023-03-14T22:46:07.870Z,-1.32
2023-03-14T22:48:38.823Z,-1.21
2023-03-14T22:51:09.870Z,-1.47
2023-03-14T22:53:39.305Z,-1.63
2023-03-14T22:56:09.292Z,-1.49
2023-03-14T22:58:38.164Z,-1.59
2023-03-14T23:01:07.548Z,-1.40
2023-03-14T23:03:35.994Z,-1.36
2023-03-14T23:06:08.207Z,-1.41
2023-03-14T23:08:38.018Z,-1.28
2023-03-14T23:11:08.306Z,-1.32
2023-03-14T23:13:37.313Z,-1.16
2023-03-14T23:16:08.135Z,-0.97
2023-03-14T23:18:37.332Z,-1.03
2023-03-14T23:21:13.806Z,-1.28
2023-03-14T23:23:46.677Z,-1.32
2023-03-14T23:26:17.482Z,-1.04
2023-03-14T23:28:46.134Z,-1.18
2023-03-14T23:31:14.939Z,-0.80
2023-03-14T23:33:45.200Z,-1.06
2023-03-14T23:36:18.285Z,-0.95
2023-03-14T23:38:47.998Z,-1.20
2023-03-14T23:41:17.081Z,-0.90
2023-03-14T23:43:47.800Z,-0.67
2023-03-14T23:46:17.404Z,-0.48
2023-03-14T23:48:47.457Z,-0.54
2023-03-14T23:51:18.063Z,-0.65
2023-03-14T23:53:46.457Z,-1.12
2023-03-14T23:56:17.297Z,-0.92
2023-03-14T23:58:45.815Z,-0.76
